createdAt,value
2023-02-21T00:00:33.871Z,22.10
2023-02-21T00:03:19.390Z,21.40
2023-02-21T00:06:05.036Z,19.90
2023-02-21T00:08:50.174Z,21.03
2023-02-21T00:11:35.618Z,18.73
2023-02-21T00:14:21.088Z,22.20
2023-02-21T00:17:06.466Z,24.90
2023-02-21T00:19:52.037Z,18.60
2023-02-21T00:22:37.522Z,19.80
2023-02-21T00:25:22.986Z,19.20
2023-02-21T00:28:08.176Z,22.30
2023-02-21T00:30:53.629Z,21.87
2023-02-21T00:33:38.780Z,23.63
2023-02-21T00:36:24.079Z,21.17
2023-02-21T00:39:09.588Z,35.37
2023-02-21T00:41:55.028Z,19.57
2023-02-21T00:44:40.368Z,26.33
2023-02-21T00:47:25.840Z,22.70
2023-02-21T00:50:11.325Z,22.80
2023-02-21T00:52:56.838Z,23.67
2023-02-21T00:55:42.296Z,21.00
2023-02-21T00:58:27.807Z,25.33
2023-02-21T01:01:13.482Z,22.87
2023-02-21T01:03:59.023Z,20.70
2023-02-21T01:06:44.355Z,28.17
2023-02-21T01:09:29.806Z,24.73
2023-02-21T01:12:15.392Z,24.60
2023-02-21T01:15:00.909Z,29.10
2023-02-21T01:17:46.368Z,23.13
2023-02-21T01:20:31.692Z,25.87
2023-02-21T01:23:17.155Z,28.10
2023-02-21T01:26:02.569Z,27.30
2023-02-21T01:28:48.051Z,28.00
2023-02-21T01:31:37.671Z,27.17
2023-02-21T01:34:23.311Z,31.33
2023-02-21T01:37:08.737Z,28.97
2023-02-21T01:39:54.160Z,28.30
2023-02-21T01:42:39.782Z,26.73
2023-02-21T01:45:40.096Z,26.30
2023-02-21T01:48:33.276Z,27.50
2023-02-21T01:51:20.163Z,29.90
2023-02-21T01:54:05.539Z,32.50
2023-02-21T01:56:51.566Z,34.37
2023-02-21T01:59:41.083Z,28.80
2023-02-21T02:02:39.381Z,31.43
2023-02-21T02:05:26.901Z,30.87
2023-02-21T02:08:13.121Z,33.43
2023-02-21T02:10:59.598Z,38.10
2023-02-21T02:14:13.850Z,29.50
2023-02-21T02:16:48.374Z,31.23
2023-02-21T02:19:23.889Z,31.73
2023-02-21T02:22:18.663Z,33.73
2023-02-21T02:24:54.469Z,33.63
2023-02-21T02:27:53.884Z,37.17
2023-02-21T02:30:35.302Z,34.73
2023-02-21T02:33:51.086Z,33.70
2023-02-21T02:36:39.581Z,34.97
2023-02-21T02:39:25.081Z,34.07
2023-02-21T02:41:51.691Z,31.50
2023-02-21T02:44:38.917Z,33.17
2023-02-21T02:47:10.715Z,32.00
2023-02-21T02:49:42.899Z,31.37
2023-02-21T02:52:10.202Z,31.70
2023-02-21T02:54:37.204Z,38.00
2023-02-21T02:57:10.619Z,28.63
2023-02-21T02:59:41.026Z,36.00
2023-02-21T03:02:26.391Z,31.10
2023-02-21T03:05:10.851Z,36.43
2023-02-21T03:07:43.840Z,34.67
2023-02-21T03:10:38.184Z,36.50
2023-02-21T03:13:11.098Z,36.80
2023-02-21T03:16:02.534Z,36.33
2023-02-21T03:18:44.619Z,37.17
2023-02-21T03:21:39.575Z,33.50
2023-02-21T03:24:08.262Z,35.10
2023-02-21T03:26:38.680Z,35.27
2023-02-21T03:29:05.977Z,38.33
2023-02-21T03:31:43.364Z,30.07
2023-02-21T03:34:10.499Z,34.20
2023-02-21T03:36:38.604Z,34.50
2023-02-21T03:39:05.436Z,32.63
2023-02-21T03:41:32.352Z,35.60
2023-02-21T03:43:59.192Z,38.90
2023-02-21T03:46:25.962Z,34.43
2023-02-21T03:48:52.875Z,33.60
2023-02-21T03:51:19.684Z,34.70
2023-02-21T03:53:46.849Z,35.20
2023-02-21T03:56:36.759Z,33.03
2023-02-21T03:59:07.087Z,36.80
2023-02-21T04:01:33.806Z,35.77
2023-02-21T04:04:00.545Z,33.13
2023-02-21T04:06:27.217Z,45.17
2023-02-21T04:08:53.900Z,35.47
2023-02-21T04:11:22.289Z,37.20
2023-02-21T04:13:48.966Z,39.83
2023-02-21T04:16:15.658Z,38.23
2023-02-21T04:18:42.359Z,39.43
2023-02-21T04:21:09.122Z,34.40
2023-02-21T04:23:36.066Z,41.33
2023-02-21T04:26:02.714Z,43.57
2023-02-21T04:28:29.461Z,31.93
2023-02-21T04:30:56.218Z,41.70
2023-02-21T04:33:22.980Z,39.57
2023-02-21T04:35:50.546Z,39.63
2023-02-21T04:38:17.398Z,41.97
2023-02-21T04:40:44.154Z,37.27
2023-02-21T04:43:10.861Z,44.97
2023-02-21T04:45:37.588Z,40.97
2023-02-21T04:48:04.525Z,43.07
2023-02-21T04:50:31.285Z,44.60
2023-02-21T04:52:57.989Z,40.40
2023-02-21T04:55:24.796Z,45.57
2023-02-21T04:57:51.467Z,40.37
2023-02-21T05:00:18.281Z,41.20
2023-02-21T05:02:45.702Z,35.83
2023-02-21T05:05:13.412Z,46.20
2023-02-21T05:07:42.498Z,44.53
2023-02-21T05:10:10.182Z,41.00
2023-02-21T05:12:39.632Z,36.13
2023-02-21T05:15:07.642Z,44.50
2023-02-21T05:17:34.505Z,39.37
2023-02-21T05:20:01.868Z,43.70
2023-02-21T05:22:28.669Z,48.00
2023-02-21T05:24:55.386Z,42.30
2023-02-21T05:27:22.544Z,41.80
2023-02-21T05:29:51.441Z,41.47
2023-02-21T05:32:22.953Z,43.60
2023-02-21T05:34:49.750Z,47.50
2023-02-21T05:37:21.297Z,46.90
2023-02-21T05:39:48.655Z,42.70
2023-02-21T05:42:15.418Z,44.63
2023-02-21T05:44:45.602Z,45.10
2023-02-21T05:47:14.036Z,43.20
2023-02-21T05:49:41.686Z,45.23
2023-02-21T05:52:12.155Z,44.50
2023-02-21T05:54:39.003Z,52.93
2023-02-21T05:57:05.788Z,37.57
2023-02-21T05:59:32.535Z,45.83
2023-02-21T06:01:59.552Z,46.30
2023-02-21T06:04:26.389Z,46.83
2023-02-21T06:06:53.180Z,47.23
2023-02-21T06:09:20.433Z,47.70
2023-02-21T06:11:47.299Z,46.30
2023-02-21T06:14:19.236Z,43.93
2023-02-21T06:16:46.336Z,42.63
2023-02-21T06:19:14.309Z,45.80
2023-02-21T06:21:42.072Z,43.63
2023-02-21T06:24:10.037Z,46.57
2023-02-21T06:26:37.359Z,44.27
2023-02-21T06:29:07.429Z,39.37
2023-02-21T06:31:34.261Z,34.57
2023-02-21T06:34:01.166Z,49.27
2023-02-21T06:36:29.268Z,42.97
2023-02-21T06:38:57.742Z,39.83
2023-02-21T06:41:28.593Z,40.60
2023-02-21T06:43:56.289Z,43.80
2023-02-21T06:46:26.012Z,38.07
2023-02-21T06:48:53.092Z,43.20
2023-02-21T06:51:20.009Z,45.50
2023-02-21T06:53:50.714Z,43.27
2023-02-21T06:56:17.510Z,36.77
2023-02-21T06:58:44.278Z,43.43
2023-02-21T07:01:11.080Z,39.17
2023-02-21T07:03:43.237Z,45.57
2023-02-21T07:06:10.387Z,40.53
2023-02-21T07:08:37.147Z,44.70
2023-02-21T07:11:05.692Z,39.97
2023-02-21T07:13:33.430Z,37.27
2023-02-21T07:16:00.868Z,37.67
2023-02-21T07:18:27.677Z,47.27
2023-02-21T07:20:54.450Z,41.87
2023-02-21T07:23:21.255Z,38.43
2023-02-21T07:25:48.011Z,40.20
2023-02-21T07:28:14.942Z,36.47
2023-02-21T07:30:41.853Z,36.50
2023-02-21T07:33:08.624Z,41.13
2023-02-21T07:35:36.027Z,37.60
2023-02-21T07:38:02.818Z,36.50
2023-02-21T07:40:29.483Z,38.53
2023-02-21T07:42:56.194Z,41.10
2023-02-21T07:45:22.899Z,44.87
2023-02-21T07:47:51.681Z,42.73
2023-02-21T07:50:18.516Z,41.90
2023-02-21T07:52:45.827Z,43.83
2023-02-21T07:55:13.420Z,42.67
2023-02-21T07:57:40.148Z,40.00
2023-02-21T08:00:07.434Z,43.10
2023-02-21T08:02:34.120Z,40.97
2023-02-21T08:05:00.854Z,45.77
2023-02-21T08:07:27.661Z,43.47
2023-02-21T08:09:54.381Z,39.77
2023-02-21T08:12:21.135Z,43.70
2023-02-21T08:14:47.964Z,43.93
2023-02-21T08:17:14.892Z,47.03
2023-02-21T08:19:41.693Z,45.03
2023-02-21T08:22:08.389Z,47.47
2023-02-21T08:24:35.086Z,42.23
2023-02-21T08:27:01.789Z,42.57
2023-02-21T08:29:28.936Z,49.03
2023-02-21T08:31:55.669Z,56.60
2023-02-21T08:34:22.476Z,53.03
2023-02-21T08:36:49.187Z,53.80
2023-02-21T08:39:16.117Z,51.20
2023-02-21T08:41:45.381Z,48.97
2023-02-21T08:44:16.164Z,48.20
2023-02-21T08:46:43.275Z,51.10
2023-02-21T08:49:10.688Z,48.87
2023-02-21T08:51:37.668Z,52.00
2023-02-21T08:54:04.531Z,51.50
2023-02-21T08:56:31.366Z,54.50
2023-02-21T08:58:58.497Z,49.50
2023-02-21T09:01:32.203Z,49.87
2023-02-21T09:03:58.925Z,37.80
2023-02-21T09:06:25.742Z,37.97
2023-02-21T09:08:52.448Z,40.33
2023-02-21T09:11:19.215Z,40.10
2023-02-21T09:13:46.149Z,37.43
2023-02-21T09:16:12.925Z,33.43
2023-02-21T09:18:39.625Z,31.87
2023-02-21T09:21:07.416Z,29.00
2023-02-21T09:23:34.169Z,33.13
2023-02-21T09:26:00.984Z,32.40
2023-02-21T09:28:29.376Z,30.50
2023-02-21T09:30:56.117Z,25.47
2023-02-21T09:33:24.879Z,32.60
2023-02-21T09:35:53.916Z,33.83
2023-02-21T09:38:20.823Z,33.03
2023-02-21T09:41:00.516Z,33.53
2023-02-21T09:43:36.070Z,34.67
2023-02-21T09:46:11.399Z,30.40
2023-02-21T09:48:39.663Z,32.43
2023-02-21T09:51:08.924Z,28.67
2023-02-21T09:53:44.331Z,26.17
2023-02-21T09:56:34.034Z,26.23
2023-02-21T09:59:01.049Z,31.30
2023-02-21T10:01:55.571Z,25.53
2023-02-21T10:04:22.240Z,26.77
2023-02-21T10:07:08.180Z,25.90
2023-02-21T10:09:54.733Z,26.27
2023-02-21T10:12:42.724Z,26.60
2023-02-21T10:15:29.769Z,24.90
2023-02-21T10:18:08.517Z,33.27
2023-02-21T10:20:41.367Z,29.40
2023-02-21T10:23:41.908Z,28.03
2023-02-21T10:26:11.747Z,27.00
2023-02-21T10:28:38.785Z,31.57
2023-02-21T10:31:11.786Z,32.23
2023-02-21T10:33:39.592Z,25.03
2023-02-21T10:36:15.945Z,28.73
2023-02-21T10:38:50.713Z,26.50
2023-02-21T10:41:18.572Z,18.30
2023-02-21T10:43:50.614Z,21.83
2023-02-21T10:46:27.702Z,21.67
2023-02-21T10:49:13.402Z,24.47
2023-02-21T10:51:40.145Z,21.80
2023-02-21T10:54:25.854Z,24.27
2023-02-21T10:56:54.020Z,22.40
2023-02-21T10:59:24.794Z,18.60
2023-02-21T11:01:52.728Z,18.53
2023-02-21T11:04:22.520Z,21.70
2023-02-21T11:06:57.289Z,17.70
2023-02-21T11:09:31.418Z,20.67
2023-02-21T11:12:07.304Z,22.83
2023-02-21T11:14:35.343Z,21.07
2023-02-21T11:17:20.893Z,17.80
2023-02-21T11:19:52.049Z,19.90
2023-02-21T11:22:22.955Z,17.80
2023-02-21T11:25:21.649Z,20.50
2023-02-21T11:28:10.444Z,18.13
2023-02-21T11:30:40.708Z,19.87
2023-02-21T11:33:08.959Z,19.33
2023-02-21T11:35:43.084Z,19.10
2023-02-21T11:38:41.521Z,20.50
2023-02-21T11:41:22.941Z,19.17
2023-02-21T11:43:54.505Z,20.77
2023-02-21T11:46:42.801Z,20.03
2023-02-21T11:49:20.308Z,22.70
2023-02-21T11:51:51.054Z,19.80
2023-02-21T11:54:27.370Z,19.90
2023-02-21T11:57:09.135Z,21.67
2023-02-21T11:59:48.154Z,21.37
2023-02-21T12:02:39.454Z,21.00
2023-02-21T12:05:25.026Z,22.87
2023-02-21T12:08:15.973Z,17.63
2023-02-21T12:10:54.377Z,16.60
2023-02-21T12:13:43.913Z,22.67
2023-02-21T12:16:46.593Z,22.93
2023-02-21T12:19:37.738Z,19.70
2023-02-21T12:22:19.459Z,19.60
2023-02-21T12:25:09.974Z,18.03
2023-02-21T12:27:55.898Z,21.60
2023-02-21T12:30:51.438Z,19.40
2023-02-21T12:33:48.613Z,18.43
2023-02-21T12:36:27.476Z,16.30
2023-02-21T12:39:11.774Z,21.60
2023-02-21T12:41:47.428Z,19.60
2023-02-21T12:44:30.082Z,23.23
2023-02-21T12:47:14.980Z,23.67
2023-02-21T12:49:50.149Z,19.83
2023-02-21T12:52:45.129Z,21.87
2023-02-21T12:55:24.542Z,19.80
2023-02-21T12:58:12.589Z,21.33
2023-02-21T13:00:44.262Z,20.27
2023-02-21T13:03:35.985Z,22.57
2023-02-21T13:06:26.725Z,20.97
2023-02-21T13:08:54.236Z,22.40
2023-02-21T13:11:54.432Z,21.70
2023-02-21T13:14:28.597Z,24.20
2023-02-21T13:16:55.591Z,21.60
2023-02-21T13:19:24.214Z,25.60
2023-02-21T13:21:53.888Z,26.20
2023-02-21T13:24:45.724Z,23.83
2023-02-21T13:27:38.562Z,23.77
2023-02-21T13:30:13.007Z,23.23
2023-02-21T13:32:49.382Z,24.30
2023-02-21T13:35:21.456Z,23.17
2023-02-21T13:37:51.974Z,28.30
2023-02-21T13:40:23.773Z,24.60
2023-02-21T13:43:02.765Z,25.83
2023-02-21T13:45:30.017Z,27.53
2023-02-21T13:48:05.789Z,28.30
2023-02-21T13:50:55.695Z,29.63
2023-02-21T13:53:25.901Z,24.30
2023-02-21T13:56:14.045Z,27.30
2023-02-21T13:58:45.909Z,24.23
2023-02-21T14:01:30.028Z,28.80
2023-02-21T14:03:57.666Z,28.40
2023-02-21T14:06:31.866Z,25.63
2023-02-21T14:09:03.431Z,25.63
2023-02-21T14:11:37.236Z,28.10
2023-02-21T14:14:25.214Z,29.40
2023-02-21T14:17:09.136Z,25.53
2023-02-21T14:19:41.701Z,31.20
2023-02-21T14:22:18.662Z,24.30
2023-02-21T14:24:53.240Z,28.73
2023-02-21T14:27:19.934Z,23.70
2023-02-21T14:30:12.641Z,28.53
2023-02-21T14:32:44.101Z,26.93
2023-02-21T14:35:16.883Z,30.00
2023-02-21T14:37:53.079Z,34.43
2023-02-21T14:40:34.892Z,34.20
2023-02-21T14:43:41.415Z,30.03
2023-02-21T14:46:23.237Z,30.10
2023-02-21T14:49:27.070Z,31.50
2023-02-21T14:52:27.732Z,28.90
2023-02-21T14:55:15.434Z,31.20
2023-02-21T14:58:03.696Z,25.70
2023-02-21T15:01:07.351Z,31.80
2023-02-21T15:04:20.463Z,32.93
2023-02-21T15:07:15.778Z,25.07
2023-02-21T15:09:42.667Z,32.90
2023-02-21T15:12:15.186Z,28.90
2023-02-21T15:14:49.838Z,26.30
2023-02-21T15:17:25.510Z,29.60
2023-02-21T15:20:13.428Z,31.47
2023-02-21T15:22:40.212Z,31.37
2023-02-21T15:25:09.956Z,29.17
2023-02-21T15:27:51.603Z,27.43
2023-02-21T15:30:22.431Z,26.10
2023-02-21T15:32:59.630Z,28.40
2023-02-21T15:35:37.299Z,27.87
2023-02-21T15:38:09.730Z,28.27
2023-02-21T15:40:37.100Z,29.93
2023-02-21T15:43:05.441Z,27.30
2023-02-21T15:45:40.490Z,29.80
2023-02-21T15:48:07.530Z,28.17
2023-02-21T15:50:44.489Z,30.17
2023-02-21T15:53:20.924Z,33.80
2023-02-21T15:55:49.393Z,30.30
2023-02-21T15:58:20.928Z,31.63
2023-02-21T16:01:06.812Z,28.17
2023-02-21T16:03:37.936Z,35.57
2023-02-21T16:06:25.200Z,26.00
2023-02-21T16:09:15.335Z,33.47
2023-02-21T16:11:42.115Z,32.70
2023-02-21T16:14:23.715Z,31.53
2023-02-21T16:16:57.325Z,37.70
2023-02-21T16:19:24.735Z,34.20
2023-02-21T16:22:13.602Z,33.07
2023-02-21T16:24:41.666Z,31.57
2023-02-21T16:27:15.480Z,31.53
2023-02-21T16:29:42.288Z,32.20
2023-02-21T16:32:21.264Z,32.40
2023-02-21T16:34:51.448Z,33.63
2023-02-21T16:37:18.143Z,30.53
2023-02-21T16:39:44.837Z,34.53
2023-02-21T16:42:11.695Z,27.83
2023-02-21T16:44:38.414Z,35.07
2023-02-21T16:47:06.834Z,29.70
2023-02-21T16:49:33.800Z,29.37
2023-02-21T16:52:00.751Z,25.70
2023-02-21T16:54:27.683Z,30.87
2023-02-21T16:56:54.667Z,29.50
2023-02-21T16:59:24.195Z,31.00
2023-02-21T17:01:51.626Z,37.77
2023-02-21T17:04:22.716Z,33.40
2023-02-21T17:07:03.402Z,39.23
2023-02-21T17:09:33.448Z,37.00
2023-02-21T17:12:00.833Z,34.80
2023-02-21T17:14:27.569Z,30.23
2023-02-21T17:16:56.287Z,33.13
2023-02-21T17:19:23.772Z,35.47
2023-02-21T17:21:53.142Z,29.40
2023-02-21T17:24:20.559Z,29.77
2023-02-21T17:26:47.487Z,30.53
2023-02-21T17:29:14.290Z,31.63
2023-02-21T17:31:41.185Z,29.27
2023-02-21T17:34:08.288Z,29.50
2023-02-21T17:36:35.041Z,35.13
2023-02-21T17:39:02.102Z,29.57
2023-02-21T17:41:29.068Z,35.53
2023-02-21T17:43:56.102Z,28.73
2023-02-21T17:46:23.659Z,30.53
2023-02-21T17:48:50.485Z,33.90
2023-02-21T17:51:23.179Z,29.17
2023-02-21T17:53:51.387Z,26.83
2023-02-21T17:56:24.496Z,35.60
2023-02-21T17:58:51.580Z,35.60
2023-02-21T18:01:19.711Z,34.03
2023-02-21T18:03:48.007Z,33.83
2023-02-21T18:06:15.590Z,31.97
2023-02-21T18:08:44.857Z,30.93
2023-02-21T18:11:13.374Z,28.73
2023-02-21T18:13:40.402Z,31.43
2023-02-21T18:16:07.590Z,40.73
2023-02-21T18:18:34.835Z,32.17
2023-02-21T18:21:02.527Z,34.10
2023-02-21T18:23:30.356Z,30.73
2023-02-21T18:25:57.629Z,29.60
2023-02-21T18:28:25.262Z,29.37
2023-02-21T18:30:53.756Z,28.30
2023-02-21T18:33:23.023Z,28.60
2023-02-21T18:35:50.284Z,29.43
2023-02-21T18:38:17.318Z,33.70
2023-02-21T18:40:46.955Z,33.40
2023-02-21T18:43:23.174Z,33.03
2023-02-21T18:45:51.686Z,35.53
2023-02-21T18:48:18.576Z,41.20
2023-02-21T18:50:45.880Z,32.07
2023-02-21T18:53:12.695Z,32.63
2023-02-21T18:55:39.746Z,36.30
2023-02-21T18:58:07.536Z,43.73
2023-02-21T19:00:36.483Z,36.30
2023-02-21T19:03:06.197Z,30.77
2023-02-21T19:05:34.318Z,32.80
2023-02-21T19:08:01.293Z,32.90
2023-02-21T19:10:29.448Z,33.50
2023-02-21T19:12:59.297Z,34.67
2023-02-21T19:15:26.517Z,30.13
2023-02-21T19:17:53.269Z,38.00
2023-02-21T19:20:20.230Z,32.50
2023-02-21T19:22:47.613Z,30.07
2023-02-21T19:25:16.692Z,35.63
2023-02-21T19:27:44.777Z,35.50
2023-02-21T19:30:13.429Z,39.17
2023-02-21T19:32:40.207Z,37.17
2023-02-21T19:35:08.431Z,38.40
2023-02-21T19:37:36.269Z,33.57
2023-02-21T19:40:07.730Z,31.73
2023-02-21T19:42:35.688Z,32.97
2023-02-21T19:45:02.507Z,35.53
2023-02-21T19:47:29.715Z,27.33
2023-02-21T19:49:56.592Z,29.57
2023-02-21T19:52:23.461Z,37.20
2023-02-21T19:54:50.218Z,32.50
2023-02-21T19:57:16.903Z,41.67
2023-02-21T19:59:43.600Z,37.33
2023-02-21T20:02:12.675Z,32.27
2023-02-21T20:04:41.305Z,27.10
2023-02-21T20:07:08.063Z,29.70
2023-02-21T20:09:34.864Z,38.03
2023-02-21T20:12:01.776Z,36.00
2023-02-21T20:14:28.610Z,30.00
2023-02-21T20:16:55.905Z,35.20
2023-02-21T20:19:24.306Z,38.27
2023-02-21T20:21:54.552Z,35.30
2023-02-21T20:24:21.312Z,41.10
2023-02-21T20:26:52.311Z,38.40
2023-02-21T20:29:20.997Z,37.63
2023-02-21T20:31:48.221Z,35.00
2023-02-21T20:34:14.992Z,37.70
2023-02-21T20:36:45.907Z,34.30
2023-02-21T20:39:31.225Z,31.77
2023-02-21T20:42:01.755Z,33.83
2023-02-21T20:44:34.208Z,37.60
2023-02-21T20:47:02.000Z,38.73
2023-02-21T20:49:28.986Z,38.07
2023-02-21T20:51:55.829Z,28.90
2023-02-21T20:54:23.111Z,35.80
2023-02-21T20:56:52.228Z,32.97
2023-02-21T20:59:23.757Z,38.20
2023-02-21T21:01:50.790Z,36.30
2023-02-21T21:04:21.001Z,41.50
2023-02-21T21:06:48.191Z,30.27
2023-02-21T21:09:17.951Z,33.77
2023-02-21T21:11:45.638Z,37.23
2023-02-21T21:14:16.339Z,33.87
2023-02-21T21:16:43.448Z,40.27
2023-02-21T21:19:10.298Z,33.33
2023-02-21T21:21:37.820Z,37.23
2023-02-21T21:24:07.167Z,34.47
2023-02-21T21:26:34.181Z,30.13
2023-02-21T21:29:01.503Z,33.47
2023-02-21T21:31:28.529Z,27.83
2023-02-21T21:33:56.385Z,35.87
2023-02-21T21:36:23.257Z,34.77
2023-02-21T21:38:49.986Z,34.43
2023-02-21T21:41:17.050Z,35.47
2023-02-21T21:43:45.287Z,26.53
2023-02-21T21:46:13.489Z,32.10
2023-02-21T21:48:44.354Z,34.93
2023-02-21T21:51:11.689Z,28.00
2023-02-21T21:53:40.082Z,30.13
2023-02-21T21:56:11.378Z,36.40
2023-02-21T21:58:38.302Z,33.47
2023-02-21T22:01:05.437Z,42.40
2023-02-21T22:03:32.339Z,36.13
2023-02-21T22:06:00.682Z,36.17
2023-02-21T22:08:28.708Z,32.10
2023-02-21T22:10:55.557Z,40.03
2023-02-21T22:13:22.267Z,36.73
2023-02-21T22:15:49.897Z,33.10
2023-02-21T22:18:18.234Z,38.90
2023-02-21T22:20:49.771Z,38.20
2023-02-21T22:23:21.024Z,38.27
2023-02-21T22:25:48.448Z,42.63
2023-02-21T22:28:15.816Z,40.20
2023-02-21T22:30:42.606Z,46.83
2023-02-21T22:33:13.568Z,46.30
2023-02-21T22:35:41.606Z,45.30
2023-02-21T22:38:14.320Z,39.30
2023-02-21T22:40:41.961Z,38.80
2023-02-21T22:43:09.865Z,43.40
2023-02-21T22:45:37.660Z,41.90
2023-02-21T22:48:07.081Z,42.73
2023-02-21T22:50:37.167Z,42.30
2023-02-21T22:53:09.594Z,42.20
2023-02-21T22:55:37.485Z,46.93
2023-02-21T22:58:07.148Z,43.27
2023-02-21T23:00:35.574Z,42.67
2023-02-21T23:03:13.435Z,41.07
2023-02-21T23:05:49.522Z,41.47
2023-02-21T23:08:19.393Z,46.83
2023-02-21T23:10:47.412Z,41.90
2023-02-21T23:13:17.532Z,42.67
2023-02-21T23:15:45.686Z,46.50
2023-02-21T23:18:20.323Z,43.87
2023-02-21T23:20:53.087Z,43.50
2023-02-21T23:23:21.843Z,42.67
2023-02-21T23:25:48.571Z,39.57
2023-02-21T23:28:16.385Z,45.10
2023-02-21T23:30:43.438Z,44.53
2023-02-21T23:33:16.286Z,43.60
2023-02-21T23:35:44.905Z,36.70
2023-02-21T23:38:15.638Z,45.80
2023-02-21T23:40:44.434Z,44.07
2023-02-21T23:43:12.541Z,49.47
2023-02-21T23:45:40.233Z,52.37
2023-02-21T23:48:09.735Z,40.80
2023-02-21T23:50:37.562Z,79.87
2023-02-21T23:53:05.927Z,51.33
2023-02-21T23:55:35.665Z,55.57
2023-02-21T23:58:04.437Z,66.30
